Time;durP1;ratioP1;P1;durP2;ratioP2;P2;SDS_P1;SDS_P2;PMS_P1;PMS_P2;Temp;Humidity;BMP_temperature;BMP_pressure;BME280_temperature;BME280_humidity;BME280_pressure;Samples;Min_cycle;Max_cycle;Signal;HPM_P1;HPM_P2
2021/12/08 00:00:23;;;;;;;0.00;0.00;;;2.60;99.90;;;;;;4959885;28;20062;-62
2021/12/08 00:02:49;;;;;;;0.00;0.00;;;2.50;99.90;;;;;;4958776;28;20046;-65
2021/12/08 00:05:17;;;;;;;0.00;0.00;;;2.40;99.90;;;;;;4960260;28;20054;-62
2021/12/08 00:07:43;;;;;;;0.00;0.00;;;2.20;99.90;;;;;;4943423;28;20051;-63
2021/12/08 00:10:39;;;;;;;0.00;0.00;;;2.40;99.90;;;;;;4959505;28;20538;-63
2021/12/08 00:13:07;;;;;;;0.00;0.00;;;3.00;99.90;;;;;;4943171;28;20132;-62
2021/12/08 00:15:37;;;;;;;0.00;0.00;;;2.20;99.90;;;;;;4958993;28;20816;-63
2021/12/08 00:18:06;;;;;;;0.17;0.17;;;2.20;99.90;;;;;;4943055;28;20031;-65
2021/12/08 00:20:33;;;;;;;0.10;0.10;;;1.80;99.90;;;;;;4960737;28;20069;-63
2021/12/08 00:23:03;;;;;;;0.00;0.00;;;2.00;99.90;;;;;;4942778;28;20053;-62
2021/12/08 00:25:29;;;;;;;0.00;0.00;;;1.90;99.90;;;;;;4960730;28;20046;-62
2021/12/08 00:27:56;;;;;;;0.00;0.00;;;1.80;99.90;;;;;;4942917;28;20050;-63
2021/12/08 00:30:22;;;;;;;0.10;0.10;;;3.20;99.90;;;;;;4958963;28;20042;-63
2021/12/08 00:32:50;;;;;;;0.00;0.00;;;1.80;99.90;;;;;;4941801;28;20414;-62
2021/12/08 00:35:16;;;;;;;0.00;0.00;;;1.80;99.90;;;;;;4942912;28;20122;-62
2021/12/08 00:37:42;;;;;;;0.15;0.15;;;1.80;99.90;;;;;;4959732;28;20118;-65
2021/12/08 00:40:12;;;;;;;0.00;0.00;;;1.80;99.90;;;;;;4959430;28;20062;-65
2021/12/08 00:42:37;;;;;;;0.00;0.00;;;1.90;99.90;;;;;;4960366;28;20045;-65
2021/12/08 00:45:06;;;;;;;0.00;0.00;;;2.00;99.90;;;;;;4957733;28;20046;-62
2021/12/08 00:47:32;;;;;;;0.00;0.00;;;2.00;99.90;;;;;;4960437;28;20772;-62
2021/12/08 00:49:58;;;;;;;0.00;0.00;;;2.00;99.90;;;;;;4958243;28;20129;-62
2021/12/08 00:52:28;;;;;;;0.00;0.00;;;2.00;99.90;;;;;;4959711;28;20043;-62
2021/12/08 00:54:55;;;;;;;0.10;0.10;;;2.00;99.90;;;;;;4958688;28;20121;-62
2021/12/08 00:57:21;;;;;;;0.00;0.00;;;3.60;99.90;;;;;;4959312;28;20122;-62
2021/12/08 00:59:47;;;;;;;0.00;0.00;;;2.10;99.90;;;;;;4959438;28;20043;-62
2021/12/08 01:02:13;;;;;;;0.00;0.00;;;2.10;99.90;;;;;;4941990;28;20053;-62
2021/12/08 01:04:39;;;;;;;0.00;0.00;;;2.10;99.90;;;;;;4959355;28;20062;-63
2021/12/08 01:07:05;;;;;;;0.00;0.00;;;2.10;99.90;;;;;;4958199;28;20121;-64
2021/12/08 01:09:31;;;;;;;0.10;0.10;;;2.10;99.90;;;;;;4942868;28;20109;-63
2021/12/08 01:12:01;;;;;;;0.00;0.00;;;2.10;99.90;;;;;;4959044;28;20102;-63
2021/12/08 01:14:34;;;;;;;0.00;0.00;;;3.20;99.90;;;;;;4958633;28;20046;-63
2021/12/08 01:17:02;;;;;;;0.00;0.00;;;2.20;99.90;;;;;;4959810;28;20061;-63
2021/12/08 01:19:28;;;;;;;0.00;0.00;;;2.20;99.90;;;;;;4959687;28;20125;-63
2021/12/08 01:21:54;;;;;;;0.00;0.00;;;1.30;99.90;;;;;;4959473;28;20134;-63
2021/12/08 01:24:20;;;;;;;0.00;0.00;;;2.10;99.90;;;;;;4958609;28;20034;-63
2021/12/08 01:26:46;;;;;;;0.00;0.00;;;2.20;99.90;;;;;;4959310;28;20129;-64
2021/12/08 01:29:12;;;;;;;0.00;0.00;;;2.10;99.90;;;;;;4958631;28;20765;-64
2021/12/08 01:31:41;;;;;;;0.05;0.05;;;2.20;99.90;;;;;;4959322;28;20050;-63
2021/12/08 01:34:09;;;;;;;0.00;0.00;;;2.20;99.90;;;;;;4959142;28;20047;-63
2021/12/08 01:36:35;;;;;;;0.00;0.00;;;2.20;99.90;;;;;;4959531;28;20083;-64
2021/12/08 01:39:02;;;;;;;0.00;0.00;;;2.20;99.90;;;;;;4959837;28;20086;-63
2021/12/08 01:41:28;;;;;;;0.00;0.00;;;2.20;99.90;;;;;;4941891;28;20085;-63
2021/12/08 01:46:38;;;;;;;0.00;0.00;;;3.90;99.90;;;;;;4941876;28;20046;-63
2021/12/08 01:49:04;;;;;;;0.00;0.00;;;2.70;99.90;;;;;;4957271;28;20078;-64
2021/12/08 01:51:31;;;;;;;0.00;0.00;;;2.20;99.90;;;;;;4960040;28;20057;-63
2021/12/08 01:54:01;;;;;;;0.00;0.00;;;2.30;99.90;;;;;;4959070;28;20047;-63
2021/12/08 01:56:27;;;;;;;0.00;0.00;;;2.30;99.90;;;;;;4941515;28;20138;-63
2021/12/08 01:58:53;;;;;;;0.00;0.00;;;2.30;99.90;;;;;;4941956;28;20050;-65
2021/12/08 02:01:23;;;;;;;0.00;0.00;;;2.30;99.90;;;;;;4941410;28;20122;-63
2021/12/08 02:03:49;;;;;;;0.10;0.10;;;2.30;99.90;;;;;;4958391;28;20506;-63
2021/12/08 02:06:17;;;;;;;0.00;0.00;;;2.30;99.90;;;;;;4930794;28;20061;-63
2021/12/08 02:08:43;;;;;;;0.65;0.65;;;2.20;99.90;;;;;;4962701;28;20443;-64
2021/12/08 02:11:09;;;;;;;0.00;0.00;;;2.30;99.90;;;;;;4968898;23;20089;-64
2021/12/08 02:13:38;;;;;;;0.00;0.00;;;2.30;99.90;;;;;;4986701;28;20077;-63
2021/12/08 02:16:14;;;;;;;0.00;0.00;;;2.40;99.90;;;;;;4978966;28;20720;-64
2021/12/08 02:18:44;;;;;;;0.00;0.00;;;2.50;99.90;;;;;;4963094;28;20057;-63
2021/12/08 02:21:23;;;;;;;0.00;0.00;;;2.60;99.90;;;;;;4976677;28;20058;-63
2021/12/08 02:23:48;;;;;;;0.00;0.00;;;2.50;99.90;;;;;;4962543;28;20146;-63
2021/12/08 02:26:14;;;;;;;0.00;0.00;;;2.30;99.90;;;;;;4962462;28;20054;-63
2021/12/08 02:28:40;;;;;;;0.00;0.00;;;2.60;99.90;;;;;;4962152;28;20049;-64
2021/12/08 02:31:10;;;;;;;0.00;0.00;;;2.60;99.90;;;;;;4960428;28;20050;-64
2021/12/08 02:47:32;;;;;;;0.00;0.00;;;2.60;99.90;;;;;;4962271;28;20051;-63
2021/12/08 02:49:58;;;;;;;0.00;0.00;;;2.60;99.90;;;;;;4960393;28;20489;-64
2021/12/08 02:52:24;;;;;;;0.00;0.00;;;2.70;99.90;;;;;;4962097;28;20097;-64
2021/12/08 02:54:51;;;;;;;0.00;0.00;;;2.70;99.90;;;;;;4961958;28;20066;-64
2021/12/08 02:57:23;;;;;;;0.00;0.00;;;2.70;99.90;;;;;;4961996;28;20043;-63
2021/12/08 02:59:50;;;;;;;0.10;0.10;;;2.60;99.90;;;;;;4960350;28;20500;-64
2021/12/08 03:02:16;;;;;;;0.00;0.00;;;2.70;99.90;;;;;;4962318;28;20122;-63
2021/12/08 03:04:42;;;;;;;0.00;0.00;;;2.70;99.90;;;;;;4972659;28;20186;-64
2021/12/08 03:07:08;;;;;;;0.00;0.00;;;2.70;99.90;;;;;;4944099;28;20564;-64
2021/12/08 03:09:34;;;;;;;0.00;0.00;;;2.60;99.90;;;;;;4962060;28;20177;-64
2021/12/08 03:12:01;;;;;;;0.00;0.00;;;2.70;99.90;;;;;;4961591;28;20113;-63
2021/12/08 03:14:29;;;;;;;0.00;0.00;;;2.70;99.90;;;;;;4961152;28;20483;-64
2021/12/08 03:16:59;;;;;;;0.00;0.00;;;2.70;99.90;;;;;;4959512;28;20043;-63
2021/12/08 03:19:26;;;;;;;0.00;0.00;;;2.70;99.90;;;;;;4976266;28;20059;-63
2021/12/08 03:21:53;;;;;;;0.00;0.00;;;2.80;99.90;;;;;;4961545;28;20062;-63
2021/12/08 03:24:31;;;;;;;0.00;0.00;;;2.80;99.90;;;;;;4960408;28;20119;-64
2021/12/08 03:27:08;;;;;;;0.00;0.00;;;2.80;99.90;;;;;;4960064;28;20054;-63
2021/12/08 03:29:54;;;;;;;0.00;0.00;;;2.80;99.90;;;;;;4959883;28;20051;-64
2021/12/08 03:32:29;;;;;;;;;;;2.80;99.90;;;;;;4960746;28;20375;-63
2021/12/08 03:34:55;;;;;;;;;;;2.80;99.90;;;;;;4960195;28;20438;-63
2021/12/08 03:37:27;;;;;;;0.00;0.00;;;2.80;99.90;;;;;;4960314;28;19918;-64
2021/12/08 03:39:54;;;;;;;0.00;0.00;;;2.80;99.90;;;;;;4961262;28;20078;-64
2021/12/08 03:42:23;;;;;;;0.08;0.08;;;2.80;99.90;;;;;;4961205;28;20050;-64
2021/12/08 03:44:49;;;;;;;0.00;0.00;;;2.80;99.90;;;;;;4958446;28;20047;-64
2021/12/08 03:47:16;;;;;;;0.00;0.00;;;2.90;99.90;;;;;;4961259;28;20100;-64
2021/12/08 03:49:47;;;;;;;0.00;0.00;;;2.90;99.90;;;;;;4960829;28;20046;-64
2021/12/08 03:52:13;;;;;;;0.00;0.00;;;3.00;99.90;;;;;;4960158;28;20576;-63
2021/12/08 03:54:39;;;;;;;0.00;0.00;;;3.00;99.90;;;;;;4961363;28;20113;-64
2021/12/08 03:57:06;;;;;;;0.00;0.00;;;3.00;99.90;;;;;;4960778;28;20070;-64
2021/12/08 03:59:32;;;;;;;0.00;0.00;;;3.10;99.90;;;;;;4959188;28;20504;-63
2021/12/08 04:01:58;;;;;;;0.00;0.00;;;3.10;99.90;;;;;;4959088;28;20051;-63
2021/12/08 04:04:27;;;;;;;0.17;0.15;;;3.10;99.90;;;;;;4984661;28;20043;-64
2021/12/08 04:06:55;;;;;;;0.63;0.63;;;3.20;99.90;;;;;;4959365;28;20051;-63
2021/12/08 04:09:38;;;;;;;0.00;0.00;;;4.80;99.90;;;;;;4958521;28;20046;-64
2021/12/08 04:12:05;;;;;;;0.00;0.00;;;3.20;99.90;;;;;;4960328;28;20062;-64
2021/12/08 04:14:35;;;;;;;0.00;0.00;;;3.20;99.90;;;;;;4959030;28;20097;-64
2021/12/08 04:17:15;;;;;;;0.00;0.00;;;3.30;99.90;;;;;;4960172;28;20069;-64
2021/12/08 04:19:42;;;;;;;0.00;0.00;;;3.30;99.90;;;;;;4959194;28;20047;-65
2021/12/08 04:22:20;;;;;;;0.00;0.00;;;3.30;99.90;;;;;;4960752;28;20070;-64
2021/12/08 04:24:48;;;;;;;0.05;0.05;;;3.30;99.90;;;;;;4960571;28;20042;-63
2021/12/08 04:27:18;;;;;;;0.00;0.00;;;3.40;99.90;;;;;;4958813;28;20051;-63
2021/12/08 04:29:45;;;;;;;0.00;0.00;;;3.40;99.90;;;;;;4957698;28;20539;-64
2021/12/08 04:32:14;;;;;;;0.00;0.00;;;3.80;99.90;;;;;;4960543;28;20087;-64
2021/12/08 04:34:42;;;;;;;0.00;0.00;;;3.40;99.90;;;;;;4960390;28;20473;-63
2021/12/08 04:37:16;;;;;;;0.00;0.00;;;3.50;99.90;;;;;;4960540;28;20085;-63
2021/12/08 04:40:23;;;;;;;0.00;0.00;;;3.50;99.90;;;;;;4959827;28;20749;-64
2021/12/08 04:42:53;;;;;;;0.00;0.00;;;3.50;99.90;;;;;;4958015;28;20465;-64
2021/12/08 04:45:29;;;;;;;0.00;0.00;;;3.50;99.90;;;;;;4959358;28;20071;-64
2021/12/08 04:48:55;;;;;;;0.00;0.00;;;3.60;99.90;;;;;;4959785;28;20509;-63
2021/12/08 05:06:51;;;;;;;0.00;0.00;;;3.80;99.90;;;;;;4960361;28;20058;-64
2021/12/08 05:09:37;;;;;;;0.00;0.00;;;3.90;99.90;;;;;;4959739;28;20053;-63
2021/12/08 05:12:09;;;;;;;0.08;0.08;;;3.90;99.90;;;;;;4959366;28;20116;-64
2021/12/08 05:14:43;;;;;;;0.30;0.30;;;4.00;99.90;;;;;;4957725;28;20054;-64
2021/12/08 05:17:17;;;;;;;1.27;1.17;;;3.90;99.90;;;;;;4958567;28;20119;-64
2021/12/08 05:19:47;;;;;;;0.87;0.40;;;3.90;99.90;;;;;;4959899;28;20051;-64
2021/12/08 05:22:27;;;;;;;0.00;0.00;;;4.00;99.90;;;;;;4959668;28;20038;-64
2021/12/08 05:24:55;;;;;;;0.00;0.00;;;4.00;99.90;;;;;;4958523;28;20089;-64
2021/12/08 05:27:27;;;;;;;0.08;0.08;;;4.00;99.90;;;;;;4959534;28;20063;-64
2021/12/08 05:30:01;;;;;;;0.00;0.00;;;4.00;99.90;;;;;;4956339;28;20047;-64
2021/12/08 05:32:27;;;;;;;0.00;0.00;;;4.10;99.90;;;;;;4958550;28;20057;-63
2021/12/08 05:34:52;;;;;;;0.00;0.00;;;4.10;99.90;;;;;;4959413;28;20047;-64
2021/12/08 05:37:21;;;;;;;0.00;0.00;;;4.10;99.90;;;;;;4959400;28;20088;-63
2021/12/08 05:39:48;;;;;;;0.00;0.00;;;4.10;99.90;;;;;;4959768;28;20600;-64
2021/12/08 05:42:17;;;;;;;0.00;0.00;;;4.10;99.90;;;;;;4963437;28;20055;-64
2021/12/08 05:44:43;;;;;;;0.00;0.00;;;4.20;99.90;;;;;;4962651;28;20038;-64
2021/12/08 05:47:13;;;;;;;0.00;0.00;;;4.10;99.90;;;;;;4962496;28;20079;-64
2021/12/08 05:49:40;;;;;;;0.13;0.13;;;4.10;99.90;;;;;;4963224;28;20038;-64
2021/12/08 05:52:07;;;;;;;0.00;0.00;;;5.40;99.90;;;;;;4963146;28;20042;-64
2021/12/08 05:54:36;;;;;;;0.30;0.30;;;4.10;99.90;;;;;;4962691;28;20058;-65
2021/12/08 05:57:15;;;;;;;0.00;0.00;;;4.10;99.90;;;;;;4963221;28;20054;-64
2021/12/08 05:59:42;;;;;;;0.00;0.00;;;4.10;99.90;;;;;;4960821;28;20051;-64
2021/12/08 06:02:34;;;;;;;0.00;0.00;;;4.00;99.90;;;;;;4962111;28;20738;-64
2021/12/08 06:05:01;;;;;;;0.00;0.00;;;4.10;99.90;;;;;;4971858;28;20097;-64
2021/12/08 06:07:26;;;;;;;0.30;0.30;;;4.20;99.90;;;;;;4981565;28;20049;-64
2021/12/08 06:09:55;;;;;;;0.30;0.30;;;4.20;99.90;;;;;;4982151;28;20744;-64
2021/12/08 06:12:21;;;;;;;0.00;0.00;;;4.20;99.90;;;;;;4982111;28;20061;-64
2021/12/08 06:14:53;;;;;;;0.00;0.00;;;4.20;99.90;;;;;;4979794;28;20055;-64
2021/12/08 06:17:20;;;;;;;0.00;0.00;;;4.10;99.90;;;;;;4982246;28;20046;-64
2021/12/08 06:19:47;;;;;;;0.00;0.00;;;4.10;99.90;;;;;;4980451;28;20054;-63
2021/12/08 06:22:15;;;;;;;0.10;0.10;;;4.20;99.90;;;;;;4980597;28;20066;-63
2021/12/08 06:24:42;;;;;;;0.00;0.00;;;4.20;99.90;;;;;;4981401;28;20054;-64
2021/12/08 06:27:08;;;;;;;0.05;0.05;;;4.20;99.90;;;;;;4981015;28;20049;-65
2021/12/08 06:29:35;;;;;;;0.30;0.30;;;4.20;99.90;;;;;;4981006;28;20058;-63
2021/12/08 06:32:03;;;;;;;0.30;0.30;;;4.20;99.90;;;;;;4980358;28;20093;-63
2021/12/08 06:34:30;;;;;;;0.00;0.00;;;4.20;99.90;;;;;;4982286;28;20057;-62
2021/12/08 06:37:05;;;;;;;0.00;0.00;;;4.20;99.90;;;;;;4981863;28;20046;-65
2021/12/08 06:39:38;;;;;;;0.00;0.00;;;4.20;99.90;;;;;;4982155;28;20042;-65
2021/12/08 06:42:13;;;;;;;0.28;0.22;;;4.30;99.90;;;;;;4981479;28;20042;-65
2021/12/08 06:44:40;;;;;;;;;;;4.40;99.90;;;;;;4981338;28;20054;-63
2021/12/08 06:47:09;;;;;;;0.00;0.00;;;4.30;99.90;;;;;;4980985;28;20036;-65
2021/12/08 06:49:35;;;;;;;0.00;0.00;;;4.30;99.90;;;;;;4981788;28;20043;-66
2021/12/08 06:52:06;;;;;;;0.00;0.00;;;4.40;99.90;;;;;;4980488;28;20103;-63
2021/12/08 06:54:52;;;;;;;0.00;0.00;;;4.40;99.90;;;;;;4980639;28;20058;-63
2021/12/08 06:57:21;;;;;;;;;;;4.40;99.90;;;;;;4981658;28;20046;-63
2021/12/08 07:00:00;;;;;;;0.10;0.10;;;4.40;99.90;;;;;;4979091;28;19921;-62
2021/12/08 07:02:51;;;;;;;0.00;0.00;;;4.40;99.90;;;;;;4979692;28;20050;-63
2021/12/08 07:06:02;;;;;;;0.00;0.00;;;4.50;99.90;;;;;;4969575;28;20109;-63
2021/12/08 07:08:11;;;;;;;0.00;0.00;;;4.40;99.90;;;;;;4962863;28;20134;-63
2021/12/08 07:10:40;;;;;;;0.08;0.08;;;4.40;99.90;;;;;;4961794;28;20039;-63
2021/12/08 07:13:12;;;;;;;0.00;0.00;;;4.40;99.90;;;;;;4960851;28;20447;-63
2021/12/08 07:15:41;;;;;;;0.00;0.00;;;4.30;99.90;;;;;;4961892;28;20066;-63
2021/12/08 07:18:11;;;;;;;0.00;0.00;;;4.30;99.90;;;;;;4960426;28;20570;-63
2021/12/08 07:20:44;;;;;;;0.00;0.00;;;4.30;99.90;;;;;;4961762;28;20049;-62
2021/12/08 07:23:17;;;;;;;0.00;0.00;;;4.30;99.90;;;;;;4960348;28;20053;-62
2021/12/08 07:25:44;;;;;;;0.00;0.00;;;4.30;99.90;;;;;;4960459;28;20405;-63
2021/12/08 07:28:11;;;;;;;0.00;0.00;;;4.20;99.90;;;;;;4975584;28;20068;-63
2021/12/08 07:30:43;;;;;;;0.00;0.00;;;4.30;99.90;;;;;;4961506;28;20050;-64
2021/12/08 07:33:09;;;;;;;0.00;0.00;;;4.20;99.90;;;;;;4961073;28;20054;-62
2021/12/08 07:35:44;;;;;;;0.00;0.00;;;4.90;99.90;;;;;;4961094;28;20106;-63
2021/12/08 07:38:13;;;;;;;0.00;0.00;;;4.20;99.90;;;;;;4961241;28;20141;-63
2021/12/08 07:40:50;;;;;;;0.00;0.00;;;4.80;99.90;;;;;;4975825;28;20093;-63
2021/12/08 07:43:20;;;;;;;0.00;0.00;;;4.20;99.90;;;;;;4960494;28;20058;-63
2021/12/08 07:46:11;;;;;;;0.10;0.10;;;4.20;99.90;;;;;;4961244;28;20034;-63
2021/12/08 07:48:44;;;;;;;0.00;0.00;;;4.20;99.90;;;;;;4960140;28;20130;-63
2021/12/08 07:51:18;;;;;;;0.00;0.00;;;4.20;99.90;;;;;;4961050;28;20383;-63
2021/12/08 07:53:44;;;;;;;0.00;0.00;;;4.20;99.90;;;;;;4958375;28;20081;-63
2021/12/08 07:56:12;;;;;;;0.00;0.00;;;4.20;99.90;;;;;;4959414;28;20101;-63
2021/12/08 07:58:41;;;;;;;0.00;0.00;;;4.20;99.90;;;;;;4959492;28;20066;-63
2021/12/08 08:01:13;;;;;;;0.00;0.00;;;4.10;99.90;;;;;;4958460;28;20046;-63
2021/12/08 08:03:39;;;;;;;0.00;0.00;;;4.50;99.90;;;;;;4966691;28;20105;-63
2021/12/08 08:06:11;;;;;;;0.00;0.00;;;4.20;99.90;;;;;;4976385;28;20503;-63
2021/12/08 08:08:37;;;;;;;0.00;0.00;;;4.30;99.90;;;;;;4977513;28;20055;-63
2021/12/08 08:11:10;;;;;;;0.00;0.00;;;4.30;99.90;;;;;;4979951;28;20064;-64
2021/12/08 08:13:37;;;;;;;0.00;0.00;;;4.30;99.90;;;;;;4979072;28;20058;-62
2021/12/08 08:16:11;;;;;;;0.00;0.00;;;4.20;99.90;;;;;;4979916;28;20442;-64
2021/12/08 08:18:44;;;;;;;0.00;0.00;;;4.30;99.90;;;;;;4976249;28;20042;-64
2021/12/08 08:21:15;;;;;;;0.20;0.20;;;4.30;99.90;;;;;;4979336;28;20062;-64
2021/12/08 08:23:42;;;;;;;0.10;0.10;;;4.40;99.90;;;;;;4977932;28;20065;-64
2021/12/08 08:26:10;;;;;;;1.40;1.30;;;4.40;99.90;;;;;;4979846;28;20049;-64
2021/12/08 08:28:37;;;;;;;0.00;0.00;;;4.40;99.90;;;;;;4978767;28;20045;-64
2021/12/08 08:31:16;;;;;;;0.00;0.00;;;4.50;99.90;;;;;;4979099;28;20030;-64
2021/12/08 08:33:43;;;;;;;0.00;0.00;;;4.40;99.90;;;;;;4977935;28;20046;-64
2021/12/08 08:36:12;;;;;;;0.00;0.00;;;4.50;99.90;;;;;;4979433;28;20042;-64
2021/12/08 08:38:46;;;;;;;0.00;0.00;;;4.50;99.90;;;;;;4977063;28;20050;-63
2021/12/08 08:41:28;;;;;;;0.00;0.00;;;4.50;99.90;;;;;;4961607;28;20137;-63
2021/12/08 08:43:58;;;;;;;0.00;0.00;;;4.50;99.90;;;;;;4977127;28;20076;-64
2021/12/08 08:46:28;;;;;;;0.00;0.00;;;4.60;99.90;;;;;;4977792;28;20046;-63
2021/12/08 08:48:58;;;;;;;0.08;0.08;;;5.50;99.90;;;;;;4979352;28;20097;-64
2021/12/08 08:51:34;;;;;;;0.00;0.00;;;4.60;99.90;;;;;;4978013;28;20108;-63
2021/12/08 08:54:06;;;;;;;0.00;0.00;;;4.70;99.90;;;;;;4979134;28;20409;-63
2021/12/08 08:56:36;;;;;;;0.00;0.00;;;4.60;99.90;;;;;;4979883;28;20058;-63
2021/12/08 08:59:08;;;;;;;0.00;0.00;;;4.60;99.90;;;;;;4977654;28;20464;-64
2021/12/08 09:01:38;;;;;;;0.00;0.00;;;4.60;99.90;;;;;;4979406;28;20123;-65
2021/12/08 09:04:10;;;;;;;0.10;0.10;;;4.60;99.90;;;;;;4972306;28;20149;-64
2021/12/08 09:06:40;;;;;;;0.00;0.00;;;4.70;99.90;;;;;;4976470;28;20038;-65
2021/12/08 09:09:10;;;;;;;0.00;0.00;;;4.70;99.90;;;;;;4978503;28;20035;-65
2021/12/08 09:11:42;;;;;;;0.00;0.00;;;4.70;99.90;;;;;;4979180;28;20124;-65
2021/12/08 09:14:13;;;;;;;0.00;0.00;;;4.80;99.90;;;;;;4975511;28;20129;-63
2021/12/08 09:16:52;;;;;;;0.00;0.00;;;4.80;99.90;;;;;;4978750;28;20047;-63
2021/12/08 09:19:23;;;;;;;0.00;0.00;;;4.90;99.90;;;;;;4977822;28;20058;-63
2021/12/08 09:22:01;;;;;;;0.35;0.35;;;6.50;99.90;;;;;;4978557;28;20128;-63
2021/12/08 09:24:40;;;;;;;0.00;0.00;;;4.90;99.90;;;;;;4961344;28;20685;-64
2021/12/08 09:27:09;;;;;;;0.00;0.00;;;5.00;99.90;;;;;;4977772;28;20077;-63
2021/12/08 09:29:45;;;;;;;0.00;0.00;;;4.40;99.90;;;;;;4976998;28;20072;-65
2021/12/08 09:32:19;;;;;;;0.00;0.00;;;5.40;99.90;;;;;;4977390;28;20050;-65
2021/12/08 09:34:54;;;;;;;0.00;0.00;;;5.40;99.90;;;;;;4978671;28;20050;-65
2021/12/08 09:37:23;;;;;;;0.00;0.00;;;5.70;99.90;;;;;;4979047;28;20047;-65
2021/12/08 09:40:04;;;;;;;0.00;0.00;;;5.90;99.90;;;;;;4977544;28;20137;-65
2021/12/08 09:42:42;;;;;;;0.00;0.00;;;6.20;99.90;;;;;;4977768;28;20061;-65
2021/12/08 09:45:07;;;;;;;0.22;0.22;;;6.60;99.90;;;;;;4977015;28;20061;-66
2021/12/08 09:47:34;;;;;;;0.00;0.00;;;6.80;99.90;;;;;;4978667;28;20478;-66
2021/12/08 09:50:03;;;;;;;0.00;0.00;;;7.20;99.90;;;;;;4977578;28;20054;-66
2021/12/08 09:52:30;;;;;;;0.00;0.00;;;7.00;99.90;;;;;;4979244;28;20042;-70
2021/12/08 09:54:58;;;;;;;0.00;0.00;;;6.80;99.90;;;;;;4976326;28;20049;-70
2021/12/08 09:57:25;;;;;;;0.00;0.00;;;6.20;99.90;;;;;;4977492;28;20050;-69
2021/12/08 09:59:51;;;;;;;0.00;0.00;;;5.90;99.90;;;;;;4977498;28;20050;-69
2021/12/08 10:02:32;;;;;;;0.00;0.00;;;5.70;99.90;;;;;;4959562;28;20042;-69
2021/12/08 10:05:00;;;;;;;0.00;0.00;;;5.60;99.90;;;;;;4976235;28;20059;-69
2021/12/08 10:07:27;;;;;;;0.00;0.00;;;5.60;99.90;;;;;;4977106;28;20082;-67
2021/12/08 10:09:53;;;;;;;0.00;0.00;;;5.70;99.90;;;;;;4977596;28;20277;-67
2021/12/08 10:12:19;;;;;;;0.00;0.00;;;5.60;99.90;;;;;;4978258;28;20392;-67
2021/12/08 10:14:46;;;;;;;0.20;0.20;;;5.60;99.90;;;;;;4976273;28;20501;-69
2021/12/08 10:17:14;;;;;;;0.00;0.00;;;5.60;99.90;;;;;;4976514;28;20057;-68
2021/12/08 10:19:41;;;;;;;0.28;0.28;;;5.70;99.90;;;;;;4977528;28;20140;-68
2021/12/08 10:22:17;;;;;;;0.00;0.00;;;5.70;99.90;;;;;;4978686;28;20043;-68
2021/12/08 10:25:04;;;;;;;0.00;0.00;;;5.80;99.90;;;;;;4978261;28;20449;-67
2021/12/08 10:27:30;;;;;;;0.00;0.00;;;5.90;99.90;;;;;;4979968;28;20532;-67
2021/12/08 10:30:20;;;;;;;0.00;0.00;;;6.00;99.90;;;;;;4980796;28;20056;-68
2021/12/08 10:32:46;;;;;;;0.20;0.20;;;6.00;99.90;;;;;;4981580;28;20046;-67
2021/12/08 10:35:43;;;;;;;0.00;0.00;;;5.90;99.90;;;;;;4981723;28;20049;-68
2021/12/08 10:38:09;;;;;;;0.00;0.00;;;5.80;99.90;;;;;;4980123;28;20050;-67
2021/12/08 10:40:35;;;;;;;0.10;0.10;;;6.40;99.90;;;;;;4981912;28;20069;-68
2021/12/08 10:43:13;;;;;;;0.00;0.00;;;5.80;99.90;;;;;;4981242;28;20046;-68
2021/12/08 10:45:38;;;;;;;0.00;0.00;;;6.10;99.90;;;;;;4980184;28;20058;-68
2021/12/08 10:48:05;;;;;;;0.00;0.00;;;6.60;99.90;;;;;;4981210;28;20069;-67
2021/12/08 10:56:15;;;;;;;0.00;0.00;;;8.20;99.90;;;;;;4979701;28;20064;-68
2021/12/08 10:58:49;;;;;;;0.40;0.40;;;8.10;99.90;;;;;;4980416;28;20131;-67
2021/12/08 11:01:16;;;;;;;0.00;0.00;;;7.70;99.90;;;;;;4979576;28;20127;-68
2021/12/08 11:03:44;;;;;;;0.00;0.00;;;8.00;99.90;;;;;;4973522;28;20142;-68
2021/12/08 11:06:13;;;;;;;0.00;0.00;;;7.90;99.90;;;;;;4964445;28;20191;-68
2021/12/08 11:08:44;;;;;;;0.00;0.00;;;7.90;99.90;;;;;;4961982;28;20051;-68
2021/12/08 11:11:20;;;;;;;0.00;0.00;;;8.10;99.90;;;;;;4961031;28;20055;-67
2021/12/08 11:13:49;;;;;;;0.00;0.00;;;7.90;99.90;;;;;;4960593;28;20097;-68
2021/12/08 11:16:21;;;;;;;0.20;0.20;;;8.40;99.90;;;;;;4961110;28;20552;-68
2021/12/08 11:19:14;;;;;;;0.00;0.00;;;7.60;99.90;;;;;;4961646;28;20568;-67
2021/12/08 11:21:46;;;;;;;0.00;0.00;;;7.40;99.90;;;;;;4959210;28;20049;-67
2021/12/08 11:24:24;;;;;;;0.00;0.00;;;7.80;99.90;;;;;;4961607;28;20517;-68
2021/12/08 11:26:52;;;;;;;0.00;0.00;;;7.50;99.90;;;;;;4961324;28;20117;-68
2021/12/08 11:29:24;;;;;;;0.43;0.43;;;7.80;99.90;;;;;;4958213;28;20134;-68
2021/12/08 11:31:54;;;;;;;0.00;0.00;;;7.80;99.90;;;;;;4961426;28;20468;-67
2021/12/08 11:34:29;;;;;;;0.00;0.00;;;8.50;99.90;;;;;;4959766;28;20386;-67
2021/12/08 11:36:57;;;;;;;0.98;0.68;;;7.60;99.90;;;;;;4959711;28;20047;-68
2021/12/08 11:39:36;;;;;;;0.00;0.00;;;7.20;99.90;;;;;;4959672;28;20378;-68
2021/12/08 11:42:20;;;;;;;0.00;0.00;;;7.40;99.90;;;;;;4960592;28;20057;-68
2021/12/08 11:44:56;;;;;;;0.00;0.00;;;7.40;99.90;;;;;;4959185;28;20054;-68
2021/12/08 11:47:26;;;;;;;0.00;0.00;;;7.70;99.90;;;;;;4959120;28;20058;-68
2021/12/08 11:49:58;;;;;;;0.00;0.00;;;7.50;99.90;;;;;;4959708;28;20050;-68
2021/12/08 11:52:29;;;;;;;0.00;0.00;;;7.60;99.90;;;;;;4975424;28;20209;-67
2021/12/08 11:55:02;;;;;;;0.00;0.00;;;7.50;99.90;;;;;;4959884;28;20047;-68
2021/12/08 11:57:42;;;;;;;0.28;0.22;;;7.10;99.90;;;;;;4959009;28;20120;-68
2021/12/08 12:00:28;;;;;;;0.00;0.00;;;7.00;99.90;;;;;;4960954;28;20055;-67
2021/12/08 12:02:57;;;;;;;0.00;0.00;;;6.70;99.90;;;;;;4960671;28;20130;-68
2021/12/08 12:05:27;;;;;;;0.00;0.00;;;6.60;99.90;;;;;;4965215;28;20133;-59
2021/12/08 12:07:53;;;;;;;0.20;0.20;;;6.80;99.90;;;;;;4960004;28;20050;-61
2021/12/08 12:10:21;;;;;;;0.00;0.00;;;6.80;99.90;;;;;;4960672;28;20316;-66
2021/12/08 12:12:47;;;;;;;0.00;0.00;;;6.60;99.90;;;;;;4959472;28;20051;-63
2021/12/08 12:15:16;;;;;;;0.00;0.00;;;7.50;99.90;;;;;;4960337;28;20046;-67
2021/12/08 12:17:43;;;;;;;0.00;0.00;;;6.80;99.90;;;;;;4959325;28;20100;-66
2021/12/08 12:20:31;;;;;;;0.00;0.00;;;6.80;99.90;;;;;;4960894;28;20050;-65
2021/12/08 12:23:26;;;;;;;0.00;0.00;;;6.50;99.90;;;;;;4959183;28;20112;-64
2021/12/08 12:26:20;;;;;;;0.00;0.00;;;6.30;99.90;;;;;;4975357;28;20626;-64
2021/12/08 12:29:14;;;;;;;0.00;0.00;;;6.30;99.90;;;;;;4974430;28;20073;-65
2021/12/08 12:32:21;;;;;;;0.00;0.00;;;6.30;99.90;;;;;;4958957;28;20050;-64
2021/12/08 12:34:52;;;;;;;0.00;0.00;;;6.30;99.90;;;;;;4941781;28;20051;-65
2021/12/08 12:37:29;;;;;;;0.00;0.00;;;6.30;99.90;;;;;;4960136;28;20043;-64
2021/12/08 12:39:57;;;;;;;0.00;0.00;;;6.30;99.90;;;;;;4957826;28;20042;-65
2021/12/08 12:42:24;;;;;;;0.00;0.00;;;6.30;99.90;;;;;;4960851;28;20049;-65
2021/12/08 12:45:02;;;;;;;0.00;0.00;;;6.30;99.90;;;;;;4978017;28;20298;-65
2021/12/08 12:47:30;;;;;;;0.00;0.00;;;6.20;99.90;;;;;;4977110;28;20125;-64
2021/12/08 12:50:22;;;;;;;0.00;0.00;;;6.20;99.90;;;;;;4976931;28;20047;-63
2021/12/08 12:52:59;;;;;;;0.00;0.00;;;6.20;99.90;;;;;;4978081;28;20038;-64
2021/12/08 12:55:30;;;;;;;0.00;0.00;;;7.20;99.90;;;;;;4967378;28;20054;-64
2021/12/08 12:58:02;;;;;;;0.00;0.00;;;6.00;99.90;;;;;;4975511;28;20122;-64
2021/12/08 13:00:37;;;;;;;0.00;0.00;;;6.20;99.90;;;;;;4978183;28;20464;-64
2021/12/08 13:03:03;;;;;;;;;;;6.00;99.90;;;;;;4972571;28;20038;-65
2021/12/08 13:05:52;;;;;;;0.00;0.00;;;6.10;99.90;;;;;;4966623;28;20389;-65
2021/12/08 13:08:33;;;;;;;0.00;0.00;;;6.10;99.90;;;;;;4957814;28;20089;-64
2021/12/08 13:11:05;;;;;;;0.00;0.00;;;6.00;99.90;;;;;;4957547;28;20062;-64
2021/12/08 13:13:45;;;;;;;0.00;0.00;;;6.00;99.90;;;;;;4955922;28;20151;-64
2021/12/08 13:16:34;;;;;;;0.10;0.10;;;6.00;99.90;;;;;;4957606;28;20042;-64
2021/12/08 13:19:05;;;;;;;0.00;0.00;;;6.00;99.90;;;;;;4957638;28;20610;-62
2021/12/08 13:21:52;;;;;;;0.00;0.00;;;6.00;99.90;;;;;;4958310;28;20050;-63
2021/12/08 13:24:36;;;;;;;0.00;0.00;;;6.00;99.90;;;;;;4957858;28;20059;-64
2021/12/08 13:27:14;;;;;;;0.00;0.00;;;5.90;99.90;;;;;;4973962;28;20055;-66
2021/12/08 13:29:45;;;;;;;0.00;0.00;;;6.00;99.90;;;;;;4975167;28;20131;-64
2021/12/08 13:32:13;;;;;;;0.00;0.00;;;6.00;99.90;;;;;;4976820;28;20052;-64
2021/12/08 13:34:46;;;;;;;0.00;0.00;;;5.90;99.90;;;;;;4978051;28;20064;-63
2021/12/08 13:37:23;;;;;;;0.05;0.05;;;5.90;99.90;;;;;;4976334;28;20046;-65
2021/12/08 13:39:50;;;;;;;0.00;0.00;;;5.90;99.90;;;;;;4976473;28;20062;-64
2021/12/08 13:42:29;;;;;;;0.17;0.10;;;5.90;99.90;;;;;;4976962;28;20054;-64
2021/12/08 13:44:59;;;;;;;0.00;0.00;;;5.90;99.90;;;;;;4976470;28;20058;-66
2021/12/08 13:47:27;;;;;;;0.00;0.00;;;5.90;99.90;;;;;;4960351;28;20050;-65
2021/12/08 13:50:03;;;;;;;0.00;0.00;;;5.90;99.90;;;;;;4975543;28;20066;-64
2021/12/08 13:52:32;;;;;;;0.00;0.00;;;6.60;99.90;;;;;;4977133;28;20394;-64
2021/12/08 13:55:17;;;;;;;0.00;0.00;;;;;;;;;;4977818;28;20051;-64
2021/12/08 13:57:45;;;;;;;0.00;0.00;;;;;;;;;;4977941;28;20058;-64
2021/12/08 14:00:16;;;;;;;0.00;0.00;;;;;;;;;;4997013;28;20080;-64